Latest Weather Observations for Tindal

IDD60801

Issued at 10:31 am CST Sunday 21 December 2014 (issued every 30 minutes, with the page automatically refreshed every 10 minutes)

About weather observations | Map of weather stations | Latest weather observations for NT | Other Formats
Station Details ID: 014932 Name: TINDAL RAAF Lat: -14.52 Lon: 132.38 Height: 133.6 m
Data from the previous 72 hours. | See also: Recent months at Tindal
Date/Time
CST
Temp
°C
App
Temp
°C
Dew
Point
Rel
Hum
%
Delta-T
°C
Wind Press
QNH
hPa
Press
MSL
hPa
Rain
since 9 am
mm
Dir
 
Spd
km/h
Gust
km/h
Spd
kts
Gust
kts
21/10:30am 28.4 32.9 24.0 77 3.1 W 7 11 4 6 1010.3 - 0.0
21/10:00am 27.6 32.2 23.8 80 2.6 N 6 9 3 5 1010.8 - 0.0
21/09:30am 26.6 31.2 24.1 86 1.7 NNW 7 9 4 5 1010.9 - 0.0
21/09:00am 26.6 30.7 23.3 82 2.3 NW 7 9 4 5 1010.9 1009.8 11.8
21/08:30am 26.5 31.3 22.8 80 2.5 W 2 9 1 5 1010.5 - 11.8
21/08:00am 26.1 29.7 23.0 83 2.1 WSW 9 15 5 8 1009.9 - 11.8
21/07:30am 25.6 29.2 23.1 86 1.7 NNW 9 13 5 7 1009.3 - 11.8
21/07:00am 25.0 29.7 22.7 87 1.6 NNE 2 6 1 3 1009.1 - 11.8
21/06:30am 24.4 28.3 22.5 89 1.3 NNE 6 7 3 4 1008.5 - 11.8
21/06:00am 24.1 27.7 22.4 90 1.1 N 7 9 4 5 1008.2 1007.2 11.8
21/05:30am 23.9 27.5 22.3 91 1.1 NNW 7 11 4 6 1008.3 - 11.8
21/05:00am 23.9 27.5 22.0 89 1.3 N 6 7 3 4 1008.0 - 11.6
21/04:30am 23.5 26.8 21.9 91 1.1 NW 7 13 4 7 1007.5 - 11.6
21/04:00am 23.9 27.6 22.2 90 1.1 SW 6 11 3 6 1007.7 - 11.6
21/03:30am 24.1 26.9 21.6 86 1.7 N 9 15 5 8 1007.9 - 10.8
21/03:00am 24.2 25.1 21.5 85 1.8 ESE 19 24 10 13 1007.9 1006.9 10.6
21/02:39am 23.6 23.4 21.3 87 1.5 ENE 24 35 13 19 1008.6 - 10.2
21/02:30am 23.2 21.0 20.7 86 1.6 ENE 33 43 18 23 1008.6 - 9.6
21/02:08am 23.1 21.2 21.4 90 1.1 ENE 33 54 18 29 1008.7 - 6.6
21/02:06am 23.3 21.6 21.4 89 1.3 ENE 32 54 17 29 1008.7 - 6.4
21/02:00am 24.0 22.5 22.1 89 1.3 E 33 46 18 25 1009.1 - 5.8
21/01:54am 24.2 22.4 22.3 89 1.3 E 35 46 19 25 1009.2 - 5.6
21/01:30am 25.0 24.7 23.2 90 1.2 E 30 44 16 24 1009.2 - 3.8
21/01:26am 25.4 25.9 23.3 88 1.4 E 26 39 14 21 1009.2 - 1.8
21/01:19am 26.7 26.8 23.2 81 2.4 E 28 46 15 25 1009.4 - 0.0
21/01:11am 28.2 27.4 23.1 74 3.5 E 32 37 17 20 1009.4 - 0.0
21/01:00am 28.7 32.3 23.1 71 3.8 E 9 13 5 7 1009.0 - 0.0
21/12:30am 28.6 33.7 22.6 70 4.1 CALM 0 0 0 0 1008.8 - 0.0
21/12:00am 28.6 33.5 23.1 72 3.8 ESE 2 6 1 3 1008.8 1007.7 0.0
 
Date/Time
CST
Temp
°C
App
Temp
°C
Dew
Point
Rel
Hum
%
Delta-T
°C
Wind Press
QNH
hPa
Press
MSL
hPa
Rain
since 9 am
mm
Dir
 
Spd
km/h
Gust
km/h
Spd
kts
Gust
kts
20/11:30pm 28.5 33.9 23.2 73 3.6 CALM 0 0 0 0 1008.7 - 0.0
20/11:00pm 28.3 32.5 23.2 74 3.5 SE 6 7 3 4 1009.0 - 0.0
20/10:30pm 28.6 33.7 22.6 70 4.1 CALM 0 0 0 0 1008.7 - 0.0
20/10:00pm 28.4 32.6 23.1 73 3.6 SW 6 9 3 5 1008.2 - 0.0
20/09:30pm 28.6 32.8 23.1 72 3.8 SSW 6 9 3 5 1007.9 - 0.0
20/09:00pm 28.8 32.3 22.8 70 4.1 S 9 11 5 6 1007.4 1006.4 0.0
20/08:30pm 29.2 32.5 21.9 64 4.9 S 7 11 4 6 1007.3 - 0.0
20/08:00pm 29.4 31.8 20.8 60 5.7 NNW 9 11 5 6 1007.0 - 0.0
20/07:30pm 29.3 31.8 21.8 64 5.1 WNW 11 15 6 8 1007.1 - 0.0
20/07:00pm 30.0 31.8 21.9 62 5.5 WSW 15 20 8 11 1006.9 - 0.0
20/06:30pm 30.4 31.9 23.1 65 5.0 WNW 20 26 11 14 1006.5 - 0.0
20/06:00pm 32.9 35.2 21.4 50 7.8 SE 11 15 6 8 1005.6 1004.5 0.0
20/05:30pm 33.6 36.1 22.4 52 7.7 S 13 17 7 9 1005.1 - 0.0
20/05:00pm 36.3 38.7 20.9 40 10.5 NNE 9 13 5 7 1005.0 - 0.0
20/04:30pm 36.5 39.3 23.0 45 9.4 N 13 17 7 9 1004.7 - 0.0
20/04:00pm 35.8 39.8 23.1 48 8.9 NNE 7 11 4 6 1005.0 - 0.0
20/03:30pm 36.0 39.7 23.2 47 8.9 WSW 9 15 5 8 1005.5 - 0.0
20/03:00pm 35.4 39.6 23.4 50 8.4 NNW 7 15 4 8 1006.1 1005.1 0.0
20/02:30pm 34.9 39.0 23.9 53 7.7 WNW 9 15 5 8 1006.7 - 0.0
20/02:00pm 35.2 39.5 24.2 53 7.8 NNW 9 13 5 7 1007.5 - 0.0
20/01:30pm 34.2 38.3 23.2 52 7.7 NNW 7 13 4 7 1007.9 - 0.0
20/01:00pm 33.7 37.5 23.4 55 7.2 W 9 17 5 9 1008.7 - 0.0
20/12:30pm 33.2 36.7 23.5 56 6.8 NW 11 17 6 9 1009.2 - 0.0
20/12:00pm 32.3 36.0 23.3 59 6.3 WNW 9 15 5 8 1009.8 1008.7 0.0
20/11:30am 31.7 36.1 23.8 63 5.5 S 7 11 4 6 1010.3 - 0.0
20/11:00am 31.2 35.8 24.8 69 4.5 NNW 9 13 5 7 1010.6 - 0.0
20/10:30am 30.4 34.7 23.6 67 4.7 SSE 7 13 4 7 1011.0 - 0.0
20/10:00am 29.2 33.9 24.3 75 3.4 NW 7 11 4 6 1011.5 - 0.0
20/09:30am 28.6 34.2 24.2 77 3.1 NW 2 7 1 4 1011.7 - 0.0
20/09:00am 28.1 33.6 24.1 79 2.8 WSW 2 7 1 4 1011.6 1010.5 8.8
20/08:30am 27.6 32.0 23.8 80 2.6 SW 7 11 4 6 1011.5 - 8.8
20/08:00am 27.8 32.3 24.6 83 2.2 W 9 11 5 6 1011.2 - 8.8
20/07:30am 27.1 31.5 24.4 85 1.9 W 9 11 5 6 1010.9 - 8.8
20/07:00am 26.0 30.7 24.0 89 1.4 NNW 6 7 3 4 1010.6 - 8.8
20/06:30am 25.5 30.4 23.7 90 1.2 SSW 4 7 2 4 1010.1 - 8.8
20/06:00am 25.5 30.0 23.9 91 1.1 SSW 7 11 4 6 1009.5 1008.4 8.8
20/05:30am 25.5 30.0 23.7 90 1.2 NW 6 9 3 5 1009.6 - 8.8
20/05:00am 25.7 30.4 23.4 87 1.6 NNW 4 7 2 4 1009.5 - 8.8
20/04:30am 25.4 30.7 23.1 87 1.6 CALM 0 6 0 3 1009.3 - 8.8
20/04:00am 25.0 29.2 23.1 89 1.3 S 6 11 3 6 1009.0 - 8.8
20/03:30am 25.2 30.3 23.3 89 1.3 SSW 2 9 1 5 1009.2 - 8.8
20/03:00am 25.3 29.0 23.2 88 1.4 SW 9 11 5 6 1009.7 1008.6 8.8
20/02:30am 25.6 29.5 22.9 85 1.8 N 7 11 4 6 1009.7 - 8.8
20/02:00am 25.4 26.9 22.7 85 1.8 N 19 26 10 14 1009.9 - 8.8
20/01:30am 26.4 31.0 24.8 91 1.1 N 9 13 5 7 1009.7 - 8.8
20/01:00am 26.8 33.1 24.8 89 1.4 CALM 0 6 0 3 1010.0 - 8.8
20/12:30am 26.8 33.3 25.0 90 1.3 CALM 0 0 0 0 1010.3 - 8.8
20/12:00am 26.6 31.5 24.6 89 1.4 SW 7 9 4 5 1010.6 1009.5 8.8
 
Date/Time
CST
Temp
°C
App
Temp
°C
Dew
Point
Rel
Hum
%
Delta-T
°C
Wind Press
QNH
hPa
Press
MSL
hPa
Rain
since 9 am
mm
Dir
 
Spd
km/h
Gust
km/h
Spd
kts
Gust
kts
19/11:30pm 27.2 32.0 24.5 85 1.9 NW 7 11 4 6 1010.8 - 8.8
19/11:00pm 27.2 32.0 24.5 85 1.9 N 7 13 4 7 1011.4 - 8.8
19/10:30pm 27.1 31.8 24.9 88 1.5 NNW 9 13 5 7 1011.4 - 8.6
19/10:18pm 27.4 32.4 25.4 89 1.4 N 9 17 5 9 1011.4 - 8.6
19/10:00pm 27.3 31.7 25.1 88 1.5 W 11 15 6 8 1010.8 - 8.2
19/09:58pm 27.3 32.1 25.1 88 1.5 W 9 15 5 8 1010.7 - 7.4
19/09:30pm 28.3 32.7 24.5 80 2.7 SE 9 13 5 7 1010.5 - 1.0
19/09:00pm 28.7 32.9 24.7 79 2.8 SSE 11 15 6 8 1009.7 1008.6 0.8
19/08:30pm 29.0 33.3 24.3 76 3.3 S 9 15 5 8 1009.0 - 0.8
19/08:00pm 29.6 35.6 24.2 73 3.8 CALM 0 0 0 0 1008.6 - 0.8
19/07:30pm 29.9 34.2 23.3 67 4.6 NNW 6 7 3 4 1007.9 - 0.6
19/07:00pm 29.9 34.1 23.1 67 4.7 WNW 6 9 3 5 1007.7 - 0.6
19/06:30pm 30.1 34.1 22.8 65 5.0 SE 6 13 3 7 1007.8 - 0.6
19/06:00pm 30.3 33.8 22.2 62 5.5 NE 7 13 4 7 1006.9 1005.9 0.6
19/05:30pm 30.2 33.8 22.4 63 5.3 NE 7 13 4 7 1006.2 - 0.6
19/05:00pm 29.8 32.9 21.5 61 5.6 N 7 11 4 6 1006.0 - 0.6
19/04:30pm 28.7 32.0 20.7 62 5.3 NNW 4 13 2 7 1007.2 - 0.6
19/04:00pm 28.1 31.0 20.6 63 5.0 SW 6 11 3 6 1007.6 - 0.6
19/03:30pm 27.8 29.2 21.8 70 4.0 S 17 30 9 16 1008.0 - 0.6
19/03:00pm 29.8 31.7 22.8 66 4.8 S 17 22 9 12 1007.6 1006.6 0.6
19/02:41pm 30.3 33.5 25.6 76 3.3 S 19 20 10 11 1006.9 - 0.6
19/02:30pm 30.3 34.2 24.9 73 3.8 ESE 13 19 7 10 1007.6 - 0.6
19/02:22pm 32.2 35.9 24.5 64 5.4 SE 13 20 7 11 1007.9 - 0.6
19/02:09pm 31.1 34.3 25.0 70 4.3 E 17 22 9 12 1007.8 - 0.4
19/02:00pm 36.2 40.4 23.4 47 9.0 E 7 15 4 8 1007.9 - 0.0
19/01:30pm 36.5 39.3 22.3 44 9.8 NW 11 19 6 10 1008.6 - 0.0
19/01:00pm 37.1 40.0 22.4 42 10.2 W 11 19 6 10 1009.2 - 0.0
19/12:30pm 35.6 39.3 22.5 46 9.1 W 7 15 4 8 1009.7 - 0.0
19/12:00pm 35.1 38.9 22.8 49 8.5 W 7 13 4 7 1010.3 1009.2 0.0
19/11:30am 34.9 38.0 22.9 49 8.3 W 11 17 6 9 1010.7 - 0.0
19/11:00am 34.2 36.6 21.6 47 8.6 W 11 17 6 9 1011.2 - 0.0
19/10:30am 33.5 37.4 22.9 53 7.3 NNW 7 15 4 8 1011.3 - 0.0
19/10:00am 32.9 35.8 23.2 56 6.7 NW 13 17 7 9 1011.5 - 0.0
19/09:30am 32.4 35.8 23.3 58 6.3 WNW 11 15 6 8 1011.6 - 0.0
19/09:00am 31.7 34.5 23.0 60 6.0 W 13 22 7 12 1011.7 1010.6 0.0
19/08:30am 31.1 34.5 22.7 61 5.8 NNW 9 13 5 7 1011.3 - 0.0
19/08:00am 29.9 32.1 22.6 65 5.0 NNW 15 20 8 11 1011.0 - 0.0
19/07:30am 29.2 32.1 23.2 70 4.1 NW 13 17 7 9 1010.8 - 0.0
19/07:00am 28.3 32.8 23.9 77 3.1 WNW 7 11 4 6 1010.8 - 0.0
19/06:30am 27.6 31.4 23.4 78 2.9 WNW 9 11 5 6 1010.4 - 0.0
19/06:00am 27.5 31.2 23.3 78 2.9 NW 9 11 5 6 1009.8 1008.7 0.0
19/05:30am 27.8 31.5 23.2 76 3.2 WNW 9 11 5 6 1009.4 - 0.0
19/05:00am 28.0 31.9 23.6 77 3.0 WNW 9 11 5 6 1009.3 - 0.0
19/04:30am 28.2 31.6 23.3 75 3.4 NNW 11 13 6 7 1008.9 - 0.0
19/04:00am 28.6 32.9 23.7 75 3.4 N 7 11 4 6 1009.0 - 0.0
19/03:30am 28.3 32.0 23.9 77 3.1 NNW 11 13 6 7 1008.9 - 0.0
19/03:00am 28.4 32.4 23.8 76 3.2 NNW 9 11 5 6 1008.6 1007.5 0.0
19/02:30am 28.7 32.7 23.8 75 3.4 WNW 9 11 5 6 1008.7 - 0.0
19/02:00am 28.8 32.4 23.7 74 3.5 NNW 11 15 6 8 1009.0 - 0.0
19/01:30am 29.3 32.7 24.0 73 3.7 WNW 13 17 7 9 1008.9 - 0.0
19/01:00am 29.5 32.8 23.9 72 3.9 WNW 13 15 7 8 1009.0 - 0.0
19/12:30am 29.9 33.2 23.8 70 4.2 NW 13 17 7 9 1009.1 - 0.0
19/12:00am 30.5 33.2 23.4 66 4.9 WNW 15 19 8 10 1009.4 1008.3 0.0
 
Date/Time
CST
Temp
°C
App
Temp
°C
Dew
Point
Rel
Hum
%
Delta-T
°C
Wind Press
QNH
hPa
Press
MSL
hPa
Rain
since 9 am
mm
Dir
 
Spd
km/h
Gust
km/h
Spd
kts
Gust
kts
18/11:30pm 30.6 33.1 22.5 62 5.5 NW 13 15 7 8 1009.5 - 0.0
18/11:00pm 30.6 33.6 22.7 62 5.4 WNW 11 13 6 7 1009.7 - 0.0
18/10:30pm 31.0 34.0 22.6 61 5.8 WSW 11 13 6 7 1009.1 - 0.0
18/10:00pm 31.5 35.3 22.8 60 6.0 WNW 7 11 4 6 1008.9 - 0.0
18/09:30pm 32.2 35.7 22.9 58 6.4 NNW 9 13 5 7 1008.5 - 0.0
18/09:00pm 32.4 36.0 23.1 58 6.5 NW 9 11 5 6 1007.7 1006.7 0.0
18/08:30pm 33.2 36.9 23.2 55 6.9 NNW 9 13 5 7 1007.9 - 0.0
18/08:00pm 33.7 37.3 23.1 54 7.4 NNW 9 11 5 6 1007.9 - 0.0
18/07:30pm 34.3 37.2 22.4 50 8.2 NNW 11 15 6 8 1007.8 - 0.0
18/07:00pm 34.6 37.0 21.6 46 8.9 NE 11 15 6 8 1007.2 - 0.0
18/06:30pm 35.0 37.3 21.3 45 9.3 SE 11 13 6 7 1006.3 - 0.0
18/06:00pm 35.8 37.3 22.0 44 9.5 ESE 17 20 9 11 1005.6 1004.5 0.0
18/05:30pm 36.2 37.7 22.0 43 9.8 SE 17 20 9 11 1005.4 - 0.0
18/05:00pm 37.9 40.4 21.1 37 11.5 NNE 9 26 5 14 1005.7 - 0.0
18/04:30pm 38.3 40.7 20.1 34 12.3 ESE 7 13 4 7 1005.2 - 0.0
18/04:00pm 37.7 40.3 20.5 36 11.7 ENE 7 11 4 6 1005.4 - 0.0
18/03:30pm 37.7 40.4 21.4 39 11.2 NNW 9 17 5 9 1005.9 - 0.0
18/03:00pm 37.6 40.5 21.7 39 11.0 W 9 17 5 9 1006.6 1005.6 0.0
18/02:30pm 36.7 39.6 22.4 43 9.9 NW 11 20 6 11 1007.3 - 0.0
18/02:00pm 36.1 39.7 23.0 46 9.1 WSW 9 15 5 8 1007.9 - 0.0
18/01:30pm 36.3 39.0 22.8 45 9.4 WNW 13 22 7 12 1008.6 - 0.0
18/01:00pm 35.4 39.6 23.4 50 8.4 W 7 17 4 9 1009.2 - 0.0
18/12:30pm 35.5 39.9 23.8 50 8.2 NNW 7 17 4 9 1009.7 - 0.0
18/12:00pm 34.8 38.4 23.8 53 7.7 WSW 11 17 6 9 1010.0 1008.9 0.0
18/11:30am 34.3 38.4 24.5 56 6.9 W 11 20 6 11 1010.4 - 0.0
18/11:20am 34.1 38.1 23.8 55 7.2 W 9 17 5 9 1010.5 - 0.0
18/11:01am 32.8 35.8 23.4 57 6.5 NW 13 19 7 10 1010.7 - 0.0
18/11:00am 32.7 35.8 23.6 58 6.3 NW 13 19 7 10 1010.7 - 0.0

Other Formats:

Comma delimited format used in spreadsheet applications
http://www.bom.gov.au/fwo/IDD60801/IDD60801.94131.axf

JavaScript Object Notation format (JSON) in row-major order
http://www.bom.gov.au/fwo/IDD60801/IDD60801.94131.json